Terminal Aerodrome Forecast
Issued by NWS

Home | Current Version | Previous Version | Text Only | Print | Product List | Glossary On
Versions: 1 2 3 4 5 6 7 8 9 10 11 12 13 14 15 16 17 18 19 20 21 22 23 24 25 26 27 28 29 30 31 32 33 34 35 36 37 38 39 40 41 42 43 44 45 46 47 48
000
FTUS44 KHGX 231720
TAFSGR
TAF
KSGR 231720Z 2318/2418 27006KT P6SM FEW030 SCT060
     FM232200 13008KT P6SM VCTS SCT045CB
     FM240300 VRB03KT P6SM SCT250
     FM241600 27004KT P6SM SCT030=

USA.gov is the U.S. government's official web portal to all federal, state and local government web resources and services.